LZIB/BTS METAR and TAF weather

Enter ICAO airport designator
Station Type Date Time Source
LZIB METAR 2019/08/21 23:00 UTC NOAA

LZIB 212300Z 31011KT CAVOK 17/13 Q1025


Station Type Date Time Source
LZIB Decoded METAR 2019/08/21 23:00 UTC NOAA

Station name not available
Aug 21, 2019 - 07:00 PM EDT / 2019.08.21 2300 UTC
Wind: from the NW (310 degrees) at 13 MPH (11 KT):0
Visibility: greater than 7 mile(s):0
Temperature: 62 F (17 C)
Dew Point: 55 F (13 C)
Relative Humidity: 77%
Pressure (altimeter): 30.27 in. Hg (1025 hPa)
ob: LZIB 212300Z 31011KT CAVOK 17/13 Q1025
cycle: 23

Station Type Date Time Source
LZIB TAF 2019/08/21 18:50 UTC NOAA

TAF LZIB 211700Z 2118/2218 33012KT 9999 FEW030 SCT080
BECMG 2200/2202 33006KT PROB40
TEMPO 2206/2210 -RA BKN025 BKN070 PROB40
TEMPO 2210/2215 -SHRA FEW035TCU BKN042
BECMG 2212/2214 05005KT

Example: see airport list